sensor_id;sensor_type;location;lat;lon;timestamp;pressure;altitude;pressure_sealevel;temperature;humidity
10946;BME280;5525;42.648;23.368;2023-08-06T00:01:57;93597.50;;;18.78;100.00
10946;BME280;5525;42.648;23.368;2023-08-06T00:04:23;93602.50;;;18.93;100.00
10946;BME280;5525;42.648;23.368;2023-08-06T00:06:50;93604.03;;;18.98;100.00
10946;BME280;5525;42.648;23.368;2023-08-06T00:09:18;93583.47;;;18.76;100.00
10946;BME280;5525;42.648;23.368;2023-08-06T00:11:44;93588.91;;;18.79;100.00
10946;BME280;5525;42.648;23.368;2023-08-06T00:14:12;93605.84;;;18.60;100.00
10946;BME280;5525;42.648;23.368;2023-08-06T00:16:42;93600.00;;;18.58;100.00
10946;BME280;5525;42.648;23.368;2023-08-06T00:19:08;93585.66;;;18.40;100.00
10946;BME280;5525;42.648;23.368;2023-08-06T00:21:35;93595.00;;;18.42;100.00
10946;BME280;5525;42.648;23.368;2023-08-06T00:24:02;93593.47;;;18.27;100.00
10946;BME280;5525;42.648;23.368;2023-08-06T00:26:30;93587.59;;;18.39;100.00
10946;BME280;5525;42.648;23.368;2023-08-06T00:28:56;93583.69;;;18.37;100.00
10946;BME280;5525;42.648;23.368;2023-08-06T00:31:23;93570.03;;;18.37;100.00
10946;BME280;5525;42.648;23.368;2023-08-06T00:33:50;93578.59;;;18.42;100.00
10946;BME280;5525;42.648;23.368;2023-08-06T00:36:16;93582.06;;;18.50;100.00
10946;BME280;5525;42.648;23.368;2023-08-06T00:38:43;93569.94;;;18.55;100.00
10946;BME280;5525;42.648;23.368;2023-08-06T00:41:10;93570.00;;;18.40;100.00
10946;BME280;5525;42.648;23.368;2023-08-06T00:43:38;93565.66;;;18.50;100.00
10946;BME280;5525;42.648;23.368;2023-08-06T00:46:05;93568.78;;;18.52;100.00
10946;BME280;5525;42.648;23.368;2023-08-06T00:48:32;93568.44;;;18.43;100.00
10946;BME280;5525;42.648;23.368;2023-08-06T00:50:59;93560.28;;;18.29;100.00
10946;BME280;5525;42.648;23.368;2023-08-06T00:53:25;93554.44;;;18.27;100.00
10946;BME280;5525;42.648;23.368;2023-08-06T00:55:52;93566.53;;;18.29;100.00
10946;BME280;5525;42.648;23.368;2023-08-06T00:58:19;93564.22;;;18.28;100.00
10946;BME280;5525;42.648;23.368;2023-08-06T01:00:47;93554.03;;;18.32;100.00
10946;BME280;5525;42.648;23.368;2023-08-06T01:03:14;93543.88;;;18.39;100.00
10946;BME280;5525;42.648;23.368;2023-08-06T01:05:41;93527.91;;;18.27;100.00
10946;BME280;5525;42.648;23.368;2023-08-06T01:08:15;93532.16;;;18.35;100.00
10946;BME280;5525;42.648;23.368;2023-08-06T01:10:55;93521.56;;;18.48;100.00
10946;BME280;5525;42.648;23.368;2023-08-06T01:13:31;93527.69;;;18.66;100.00
10946;BME280;5525;42.648;23.368;2023-08-06T01:16:02;93519.00;;;18.78;100.00
10946;BME280;5525;42.648;23.368;2023-08-06T01:18:30;93535.41;;;18.75;100.00
10946;BME280;5525;42.648;23.368;2023-08-06T01:20:58;93527.94;;;18.82;100.00
10946;BME280;5525;42.648;23.368;2023-08-06T01:23:25;93506.41;;;18.88;100.00
10946;BME280;5525;42.648;23.368;2023-08-06T01:25:56;93502.84;;;18.94;100.00
10946;BME280;5525;42.648;23.368;2023-08-06T01:28:33;93510.19;;;19.04;100.00
10946;BME280;5525;42.648;23.368;2023-08-06T01:31:05;93509.44;;;19.00;100.00
10946;BME280;5525;42.648;23.368;2023-08-06T01:33:37;93504.69;;;19.08;100.00
10946;BME280;5525;42.648;23.368;2023-08-06T01:36:12;93510.09;;;19.11;100.00
10946;BME280;5525;42.648;23.368;2023-08-06T01:38:39;93509.25;;;19.18;100.00
10946;BME280;5525;42.648;23.368;2023-08-06T01:41:05;93501.28;;;18.93;100.00
10946;BME280;5525;42.648;23.368;2023-08-06T01:43:32;93504.91;;;18.83;100.00
10946;BME280;5525;42.648;23.368;2023-08-06T01:45:59;93502.50;;;18.85;100.00
10946;BME280;5525;42.648;23.368;2023-08-06T01:48:25;93496.25;;;18.88;100.00
10946;BME280;5525;42.648;23.368;2023-08-06T01:50:52;93486.75;;;19.03;100.00
10946;BME280;5525;42.648;23.368;2023-08-06T01:53:20;93480.47;;;19.06;100.00
10946;BME280;5525;42.648;23.368;2023-08-06T01:55:48;93473.94;;;18.93;100.00
10946;BME280;5525;42.648;23.368;2023-08-06T01:58:14;93500.06;;;18.98;100.00
10946;BME280;5525;42.648;23.368;2023-08-06T02:00:41;93506.72;;;19.00;100.00
10946;BME280;5525;42.648;23.368;2023-08-06T02:03:08;93489.19;;;18.91;100.00
10946;BME280;5525;42.648;23.368;2023-08-06T02:05:34;93491.91;;;18.94;100.00
10946;BME280;5525;42.648;23.368;2023-08-06T02:08:01;93469.69;;;18.85;100.00
10946;BME280;5525;42.648;23.368;2023-08-06T02:10:29;93473.50;;;18.98;100.00
10946;BME280;5525;42.648;23.368;2023-08-06T02:12:56;93478.94;;;19.02;100.00
10946;BME280;5525;42.648;23.368;2023-08-06T02:15:23;93490.66;;;19.02;100.00
10946;BME280;5525;42.648;23.368;2023-08-06T02:17:49;93493.75;;;19.08;100.00
10946;BME280;5525;42.648;23.368;2023-08-06T02:20:16;93483.31;;;18.96;100.00
10946;BME280;5525;42.648;23.368;2023-08-06T02:22:43;93503.66;;;18.91;100.00
10946;BME280;5525;42.648;23.368;2023-08-06T02:25:09;93511.91;;;18.84;100.00
10946;BME280;5525;42.648;23.368;2023-08-06T02:27:38;93499.13;;;18.71;100.00
10946;BME280;5525;42.648;23.368;2023-08-06T02:30:06;93512.50;;;18.58;100.00
10946;BME280;5525;42.648;23.368;2023-08-06T02:32:33;93510.59;;;18.52;100.00
10946;BME280;5525;42.648;23.368;2023-08-06T02:35:01;93477.03;;;18.48;100.00
10946;BME280;5525;42.648;23.368;2023-08-06T02:37:27;93490.94;;;18.67;100.00
10946;BME280;5525;42.648;23.368;2023-08-06T02:39:54;93512.09;;;18.60;100.00
10946;BME280;5525;42.648;23.368;2023-08-06T02:42:21;93534.75;;;18.60;100.00
10946;BME280;5525;42.648;23.368;2023-08-06T02:44:50;93541.34;;;18.66;100.00
10946;BME280;5525;42.648;23.368;2023-08-06T02:47:16;93535.91;;;18.59;100.00
10946;BME280;5525;42.648;23.368;2023-08-06T02:49:43;93530.44;;;18.59;100.00
10946;BME280;5525;42.648;23.368;2023-08-06T02:52:10;93526.59;;;18.53;100.00
10946;BME280;5525;42.648;23.368;2023-08-06T02:54:37;93503.59;;;18.47;100.00
10946;BME280;5525;42.648;23.368;2023-08-06T02:57:05;93497.31;;;18.50;100.00
10946;BME280;5525;42.648;23.368;2023-08-06T02:59:32;93493.69;;;18.64;100.00
10946;BME280;5525;42.648;23.368;2023-08-06T03:02:01;93489.00;;;18.68;100.00
10946;BME280;5525;42.648;23.368;2023-08-06T03:04:28;93493.28;;;18.69;100.00
10946;BME280;5525;42.648;23.368;2023-08-06T03:06:54;93485.56;;;18.57;100.00
10946;BME280;5525;42.648;23.368;2023-08-06T03:09:21;93477.03;;;18.48;100.00
10946;BME280;5525;42.648;23.368;2023-08-06T03:11:47;93448.53;;;18.48;100.00
10946;BME280;5525;42.648;23.368;2023-08-06T03:14:14;93455.91;;;18.55;100.00
10946;BME280;5525;42.648;23.368;2023-08-06T03:16:41;93482.50;;;18.51;100.00
10946;BME280;5525;42.648;23.368;2023-08-06T03:19:09;93478.56;;;18.56;100.00
10946;BME280;5525;42.648;23.368;2023-08-06T03:21:36;93466.13;;;18.48;100.00
10946;BME280;5525;42.648;23.368;2023-08-06T03:24:03;93461.28;;;18.62;100.00
10946;BME280;5525;42.648;23.368;2023-08-06T03:26:30;93483.53;;;18.68;100.00
10946;BME280;5525;42.648;23.368;2023-08-06T03:28:57;93507.75;;;18.66;100.00
10946;BME280;5525;42.648;23.368;2023-08-06T03:31:23;93514.03;;;18.59;100.00
10946;BME280;5525;42.648;23.368;2023-08-06T03:33:50;93508.97;;;18.61;100.00
10946;BME280;5525;42.648;23.368;2023-08-06T03:36:18;93509.03;;;18.54;100.00
10946;BME280;5525;42.648;23.368;2023-08-06T03:38:45;93500.47;;;18.48;100.00
10946;BME280;5525;42.648;23.368;2023-08-06T03:41:11;93487.22;;;18.43;100.00
10946;BME280;5525;42.648;23.368;2023-08-06T03:43:38;93488.00;;;18.40;100.00
10946;BME280;5525;42.648;23.368;2023-08-06T03:46:04;93512.50;;;18.58;100.00
10946;BME280;5525;42.648;23.368;2023-08-06T03:48:31;93522.25;;;18.59;100.00
10946;BME280;5525;42.648;23.368;2023-08-06T03:50:58;93523.84;;;18.53;100.00
10946;BME280;5525;42.648;23.368;2023-08-06T03:53:27;93509.06;;;18.47;100.00
10946;BME280;5525;42.648;23.368;2023-08-06T03:55:54;93523.44;;;18.58;100.00
10946;BME280;5525;42.648;23.368;2023-08-06T03:58:25;93515.56;;;18.64;100.00
10946;BME280;5525;42.648;23.368;2023-08-06T04:00:57;93533.13;;;18.70;100.00
10946;BME280;5525;42.648;23.368;2023-08-06T04:03:24;93549.47;;;18.80;100.00
10946;BME280;5525;42.648;23.368;2023-08-06T04:05:51;93558.06;;;18.79;100.00
10946;BME280;5525;42.648;23.368;2023-08-06T04:08:17;93554.94;;;18.77;100.00
10946;BME280;5525;42.648;23.368;2023-08-06T04:10:49;93549.06;;;18.82;100.00
10946;BME280;5525;42.648;23.368;2023-08-06T04:13:15;93543.94;;;18.87;100.00
10946;BME280;5525;42.648;23.368;2023-08-06T04:15:42;93518.94;;;18.85;100.00
10946;BME280;5525;42.648;23.368;2023-08-06T04:18:09;93510.69;;;18.89;100.00
10946;BME280;5525;42.648;23.368;2023-08-06T04:20:42;93516.53;;;18.94;100.00
10946;BME280;5525;42.648;23.368;2023-08-06T04:23:09;93516.34;;;19.15;100.00
10946;BME280;5525;42.648;23.368;2023-08-06T04:25:35;93517.84;;;19.23;100.00
10946;BME280;5525;42.648;23.368;2023-08-06T04:28:04;93509.31;;;19.14;100.00
10946;BME280;5525;42.648;23.368;2023-08-06T04:30:30;93516.25;;;19.29;100.00
10946;BME280;5525;42.648;23.368;2023-08-06T04:32:57;93518.47;;;19.38;100.00
10946;BME280;5525;42.648;23.368;2023-08-06T04:35:24;93505.69;;;19.28;100.00
10946;BME280;5525;42.648;23.368;2023-08-06T04:37:51;93507.72;;;19.17;100.00
10946;BME280;5525;42.648;23.368;2023-08-06T04:40:17;93498.94;;;19.36;100.00
10946;BME280;5525;42.648;23.368;2023-08-06T04:42:44;93493.44;;;19.39;100.00
10946;BME280;5525;42.648;23.368;2023-08-06T04:45:12;93473.75;;;19.51;100.00
10946;BME280;5525;42.648;23.368;2023-08-06T04:47:39;93462.50;;;19.42;100.00
10946;BME280;5525;42.648;23.368;2023-08-06T04:50:06;93472.09;;;19.61;100.00
10946;BME280;5525;42.648;23.368;2023-08-06T04:52:33;93461.28;;;19.47;100.00
10946;BME280;5525;42.648;23.368;2023-08-06T04:54:59;93445.13;;;19.56;100.00
10946;BME280;5525;42.648;23.368;2023-08-06T04:57:26;93453.44;;;19.82;100.00
10946;BME280;5525;42.648;23.368;2023-08-06T04:59:53;93447.69;;;19.73;100.00
10946;BME280;5525;42.648;23.368;2023-08-06T05:02:21;93442.81;;;20.18;100.00
10946;BME280;5525;42.648;23.368;2023-08-06T05:04:47;93454.59;;;20.42;100.00
10946;BME280;5525;42.648;23.368;2023-08-06T05:07:14;93445.72;;;20.34;100.00
10946;BME280;5525;42.648;23.368;2023-08-06T05:09:41;93446.63;;;20.51;100.00
10946;BME280;5525;42.648;23.368;2023-08-06T05:12:07;93447.34;;;22.06;100.00
10946;BME280;5525;42.648;23.368;2023-08-06T05:14:34;93450.03;;;23.09;100.00
10946;BME280;5525;42.648;23.368;2023-08-06T05:17:01;93457.69;;;22.85;100.00
10946;BME280;5525;42.648;23.368;2023-08-06T05:19:31;93463.53;;;22.36;100.00
10946;BME280;5525;42.648;23.368;2023-08-06T05:21:58;93473.59;;;21.67;100.00
10946;BME280;5525;42.648;23.368;2023-08-06T05:24:24;93450.72;;;21.12;100.00
10946;BME280;5525;42.648;23.368;2023-08-06T05:26:51;93447.00;;;20.99;100.00
10946;BME280;5525;42.648;23.368;2023-08-06T05:29:18;93446.97;;;20.76;100.00
10946;BME280;5525;42.648;23.368;2023-08-06T05:31:44;93433.81;;;21.13;100.00
10946;BME280;5525;42.648;23.368;2023-08-06T05:34:11;93453.31;;;22.36;100.00
10946;BME280;5525;42.648;23.368;2023-08-06T05:36:39;93448.16;;;23.06;100.00
10946;BME280;5525;42.648;23.368;2023-08-06T05:39:06;93448.63;;;23.49;100.00
10946;BME280;5525;42.648;23.368;2023-08-06T05:41:32;93435.41;;;23.85;100.00
10946;BME280;5525;42.648;23.368;2023-08-06T05:43:59;93403.47;;;23.59;100.00
10946;BME280;5525;42.648;23.368;2023-08-06T05:46:26;93423.19;;;23.86;100.00
10946;BME280;5525;42.648;23.368;2023-08-06T05:48:52;93433.00;;;23.30;100.00
10946;BME280;5525;42.648;23.368;2023-08-06T05:51:19;93426.38;;;25.01;100.00
10946;BME280;5525;42.648;23.368;2023-08-06T05:53:47;93430.16;;;28.55;100.00
10946;BME280;5525;42.648;23.368;2023-08-06T05:56:15;93434.50;;;28.29;100.00
10946;BME280;5525;42.648;23.368;2023-08-06T05:58:42;93444.03;;;28.96;100.00
10946;BME280;5525;42.648;23.368;2023-08-06T06:01:09;93433.03;;;28.60;100.00
10946;BME280;5525;42.648;23.368;2023-08-06T06:03:35;93441.81;;;28.68;100.00
10946;BME280;5525;42.648;23.368;2023-08-06T06:06:02;93441.38;;;29.82;100.00
10946;BME280;5525;42.648;23.368;2023-08-06T06:08:29;93444.44;;;29.69;100.00
10946;BME280;5525;42.648;23.368;2023-08-06T06:10:57;93447.56;;;29.86;100.00
10946;BME280;5525;42.648;23.368;2023-08-06T06:13:24;93459.44;;;29.86;100.00
10946;BME280;5525;42.648;23.368;2023-08-06T06:15:54;93461.00;;;30.02;100.00
10946;BME280;5525;42.648;23.368;2023-08-06T06:18:20;93473.09;;;29.28;100.00
10946;BME280;5525;42.648;23.368;2023-08-06T06:20:47;93477.06;;;26.74;100.00
10946;BME280;5525;42.648;23.368;2023-08-06T06:23:14;93476.38;;;25.41;100.00
10946;BME280;5525;42.648;23.368;2023-08-06T06:25:42;93486.53;;;25.44;100.00
10946;BME280;5525;42.648;23.368;2023-08-06T06:28:10;93484.03;;;24.74;100.00
10946;BME280;5525;42.648;23.368;2023-08-06T06:30:37;93486.53;;;23.29;100.00
10946;BME280;5525;42.648;23.368;2023-08-06T06:33:04;93492.56;;;23.40;100.00
10946;BME280;5525;42.648;23.368;2023-08-06T06:35:30;93489.44;;;23.22;100.00
10946;BME280;5525;42.648;23.368;2023-08-06T06:37:57;93496.50;;;23.07;100.00
10946;BME280;5525;42.648;23.368;2023-08-06T06:40:24;93492.56;;;22.21;100.00
10946;BME280;5525;42.648;23.368;2023-08-06T06:42:51;93491.38;;;22.02;100.00
10946;BME280;5525;42.648;23.368;2023-08-06T06:45:19;93491.56;;;22.31;100.00
10946;BME280;5525;42.648;23.368;2023-08-06T06:47:45;93498.44;;;22.39;100.00
10946;BME280;5525;42.648;23.368;2023-08-06T06:50:12;93500.03;;;22.75;100.00
10946;BME280;5525;42.648;23.368;2023-08-06T06:52:38;93514.56;;;24.01;100.00
10946;BME280;5525;42.648;23.368;2023-08-06T06:55:05;93509.97;;;23.82;100.00
10946;BME280;5525;42.648;23.368;2023-08-06T06:57:32;93521.34;;;27.05;100.00
10946;BME280;5525;42.648;23.368;2023-08-06T06:59:59;93530.00;;;27.46;100.00
10946;BME280;5525;42.648;23.368;2023-08-06T07:02:27;93520.72;;;28.07;100.00
10946;BME280;5525;42.648;23.368;2023-08-06T07:04:53;93526.59;;;29.05;100.00
10946;BME280;5525;42.648;23.368;2023-08-06T07:07:20;93526.63;;;30.41;100.00
10946;BME280;5525;42.648;23.368;2023-08-06T07:09:47;93545.47;;;29.99;100.00
10946;BME280;5525;42.648;23.368;2023-08-06T07:12:13;93543.22;;;31.81;93.87
10946;BME280;5525;42.648;23.368;2023-08-06T07:14:40;93548.59;;;30.24;96.15
10946;BME280;5525;42.648;23.368;2023-08-06T07:17:07;93548.44;;;29.72;98.38
10946;BME280;5525;42.648;23.368;2023-08-06T07:19:35;93551.34;;;29.44;100.00
10946;BME280;5525;42.648;23.368;2023-08-06T07:22:01;93554.56;;;29.10;100.00
10946;BME280;5525;42.648;23.368;2023-08-06T07:24:28;93559.53;;;28.88;100.00
10946;BME280;5525;42.648;23.368;2023-08-06T07:26:54;93565.94;;;30.57;92.12
10946;BME280;5525;42.648;23.368;2023-08-06T07:29:21;93566.78;;;31.94;81.45
10946;BME280;5525;42.648;23.368;2023-08-06T07:31:48;93572.53;;;33.68;74.69
10946;BME280;5525;42.648;23.368;2023-08-06T07:34:15;93570.84;;;34.18;67.35
10946;BME280;5525;42.648;23.368;2023-08-06T07:36:45;93575.00;;;34.34;64.08
10946;BME280;5525;42.648;23.368;2023-08-06T07:39:12;93564.56;;;34.87;60.40
10946;BME280;5525;42.648;23.368;2023-08-06T07:41:39;93574.63;;;34.57;55.83
10946;BME280;5525;42.648;23.368;2023-08-06T07:44:06;93572.09;;;33.44;58.67
10946;BME280;5525;42.648;23.368;2023-08-06T07:46:33;93584.00;;;35.24;53.87
10946;BME280;5525;42.648;23.368;2023-08-06T07:49:00;93570.72;;;33.96;57.04
10946;BME280;5525;42.648;23.368;2023-08-06T07:51:26;93577.34;;;35.16;54.14
10946;BME280;5525;42.648;23.368;2023-08-06T07:53:54;93570.00;;;35.46;53.00
10946;BME280;5525;42.648;23.368;2023-08-06T07:56:21;93576.44;;;33.81;55.83
10946;BME280;5525;42.648;23.368;2023-08-06T07:58:48;93569.72;;;34.47;54.16
10946;BME280;5525;42.648;23.368;2023-08-06T08:01:14;93564.38;;;35.79;49.94
10946;BME280;5525;42.648;23.368;2023-08-06T08:03:41;93572.84;;;35.62;50.81
10946;BME280;5525;42.648;23.368;2023-08-06T08:06:08;93557.88;;;34.85;53.53
10946;BME280;5525;42.648;23.368;2023-08-06T08:08:34;93564.41;;;35.62;50.33
10946;BME280;5525;42.648;23.368;2023-08-06T08:11:05;93567.19;;;35.57;49.20
10946;BME280;5525;42.648;23.368;2023-08-06T08:13:32;93558.22;;;35.14;49.09
10946;BME280;5525;42.648;23.368;2023-08-06T08:15:59;93562.53;;;34.93;51.65
10946;BME280;5525;42.648;23.368;2023-08-06T08:18:26;93566.00;;;34.77;49.66
10946;BME280;5525;42.648;23.368;2023-08-06T08:20:53;93566.19;;;34.52;52.54
10946;BME280;5525;42.648;23.368;2023-08-06T08:23:20;93562.72;;;36.55;49.39
10946;BME280;5525;42.648;23.368;2023-08-06T08:25:46;93562.06;;;36.16;47.19
10946;BME280;5525;42.648;23.368;2023-08-06T08:28:14;93560.03;;;35.34;45.74
10946;BME280;5525;42.648;23.368;2023-08-06T08:30:41;93565.94;;;35.74;46.44
10946;BME280;5525;42.648;23.368;2023-08-06T08:33:08;93568.44;;;36.22;45.04
10946;BME280;5525;42.648;23.368;2023-08-06T08:35:36;93572.00;;;36.23;44.38
10946;BME280;5525;42.648;23.368;2023-08-06T08:38:02;93573.28;;;36.27;45.46
10946;BME280;5525;42.648;23.368;2023-08-06T08:40:31;93570.03;;;35.51;46.82
10946;BME280;5525;42.648;23.368;2023-08-06T08:42:59;93552.72;;;36.65;43.57
10946;BME280;5525;42.648;23.368;2023-08-06T08:45:29;93567.28;;;36.64;41.34
10946;BME280;5525;42.648;23.368;2023-08-06T08:47:56;93570.59;;;37.19;40.98
10946;BME280;5525;42.648;23.368;2023-08-06T08:50:22;93563.50;;;36.50;42.14
10946;BME280;5525;42.648;23.368;2023-08-06T08:52:50;93559.34;;;34.10;45.59
10946;BME280;5525;42.648;23.368;2023-08-06T08:55:17;93554.94;;;34.41;49.83
10946;BME280;5525;42.648;23.368;2023-08-06T08:57:46;93549.31;;;35.99;46.18
10946;BME280;5525;42.648;23.368;2023-08-06T09:00:13;93564.72;;;37.88;42.67
10946;BME280;5525;42.648;23.368;2023-08-06T09:02:41;93551.13;;;37.57;43.02
10946;BME280;5525;42.648;23.368;2023-08-06T09:05:09;93548.53;;;39.46;38.11
10946;BME280;5525;42.648;23.368;2023-08-06T09:07:40;93551.13;;;37.57;40.14
10946;BME280;5525;42.648;23.368;2023-08-06T09:10:10;93540.78;;;37.00;42.01
10946;BME280;5525;42.648;23.368;2023-08-06T09:12:37;93543.34;;;37.74;39.81
10946;BME280;5525;42.648;23.368;2023-08-06T09:15:05;93531.03;;;36.55;42.10
10946;BME280;5525;42.648;23.368;2023-08-06T09:17:31;93533.63;;;37.40;42.13
10946;BME280;5525;42.648;23.368;2023-08-06T09:20:09;93527.44;;;34.50;48.63
10946;BME280;5525;42.648;23.368;2023-08-06T09:22:35;93525.31;;;35.87;47.06
10946;BME280;5525;42.648;23.368;2023-08-06T09:25:02;93526.44;;;37.03;44.54
10946;BME280;5525;42.648;23.368;2023-08-06T09:27:35;93527.09;;;37.56;42.45
10946;BME280;5525;42.648;23.368;2023-08-06T09:30:02;93529.97;;;37.45;40.89
10946;BME280;5525;42.648;23.368;2023-08-06T09:32:44;93525.09;;;37.10;40.73
10946;BME280;5525;42.648;23.368;2023-08-06T09:35:16;93520.00;;;38.03;39.34
10946;BME280;5525;42.648;23.368;2023-08-06T09:37:43;93513.25;;;37.87;39.59
10946;BME280;5525;42.648;23.368;2023-08-06T09:40:24;93520.59;;;39.05;36.83
10946;BME280;5525;42.648;23.368;2023-08-06T09:42:52;93516.72;;;37.99;37.16
10946;BME280;5525;42.648;23.368;2023-08-06T09:45:19;93508.75;;;37.03;38.78
10946;BME280;5525;42.648;23.368;2023-08-06T09:47:47;93500.75;;;34.82;43.92
10946;BME280;5525;42.648;23.368;2023-08-06T09:50:19;93498.00;;;32.17;50.61
10946;BME280;5525;42.648;23.368;2023-08-06T09:52:47;93505.56;;;30.78;51.18
10946;BME280;5525;42.648;23.368;2023-08-06T09:55:14;93498.34;;;28.47;59.92
10946;BME280;5525;42.648;23.368;2023-08-06T09:57:41;93501.78;;;28.92;63.71
10946;BME280;5525;42.648;23.368;2023-08-06T10:00:09;93498.97;;;28.60;68.83
10946;BME280;5525;42.648;23.368;2023-08-06T10:02:37;93489.88;;;28.14;72.80
10946;BME280;5525;42.648;23.368;2023-08-06T10:05:05;93496.66;;;27.86;75.12
10946;BME280;5525;42.648;23.368;2023-08-06T10:07:33;93505.47;;;28.12;75.25
10946;BME280;5525;42.648;23.368;2023-08-06T10:10:00;93501.56;;;28.63;72.20
10946;BME280;5525;42.648;23.368;2023-08-06T10:12:30;93512.47;;;28.76;72.74
10946;BME280;5525;42.648;23.368;2023-08-06T10:14:59;93503.94;;;29.95;67.41
10946;BME280;5525;42.648;23.368;2023-08-06T10:17:28;93507.88;;;29.23;66.94
10946;BME280;5525;42.648;23.368;2023-08-06T10:19:55;93497.22;;;30.25;63.32
10946;BME280;5525;42.648;23.368;2023-08-06T10:22:22;93501.09;;;29.24;68.07
10946;BME280;5525;42.648;23.368;2023-08-06T10:24:52;93500.34;;;28.28;71.77
10946;BME280;5525;42.648;23.368;2023-08-06T10:27:27;93507.09;;;27.15;76.31
10946;BME280;5525;42.648;23.368;2023-08-06T10:29:54;93500.41;;;27.34;81.25
10946;BME280;5525;42.648;23.368;2023-08-06T10:32:21;93502.31;;;27.55;82.40
10946;BME280;5525;42.648;23.368;2023-08-06T10:34:55;93505.25;;;26.82;85.22
10946;BME280;5525;42.648;23.368;2023-08-06T10:37:23;93505.03;;;26.67;87.90
10946;BME280;5525;42.648;23.368;2023-08-06T10:39:52;93510.41;;;26.40;90.65
10946;BME280;5525;42.648;23.368;2023-08-06T10:42:22;93508.50;;;25.94;91.27
10946;BME280;5525;42.648;23.368;2023-08-06T10:45:12;93518.00;;;25.59;95.67
10946;BME280;5525;42.648;23.368;2023-08-06T10:47:40;93507.38;;;25.57;98.00
10946;BME280;5525;42.648;23.368;2023-08-06T10:50:10;93516.84;;;25.81;97.93
10946;BME280;5525;42.648;23.368;2023-08-06T10:52:37;93520.03;;;25.33;100.00
10946;BME280;5525;42.648;23.368;2023-08-06T10:55:05;93522.13;;;25.29;100.00
10946;BME280;5525;42.648;23.368;2023-08-06T10:57:32;93525.47;;;25.37;100.00
10946;BME280;5525;42.648;23.368;2023-08-06T10:59:59;93524.69;;;25.36;100.00
10946;BME280;5525;42.648;23.368;2023-08-06T11:02:25;93532.84;;;25.27;100.00
10946;BME280;5525;42.648;23.368;2023-08-06T11:04:52;93544.78;;;25.24;100.00
10946;BME280;5525;42.648;23.368;2023-08-06T11:07:19;93541.94;;;25.03;100.00
10946;BME280;5525;42.648;23.368;2023-08-06T11:09:50;93545.00;;;25.42;100.00
10946;BME280;5525;42.648;23.368;2023-08-06T11:12:19;93543.97;;;25.74;100.00
10946;BME280;5525;42.648;23.368;2023-08-06T11:14:50;93536.47;;;27.13;100.00
10946;BME280;5525;42.648;23.368;2023-08-06T11:17:17;93535.50;;;30.68;82.07
10946;BME280;5525;42.648;23.368;2023-08-06T11:19:43;93542.50;;;32.86;65.68
10946;BME280;5525;42.648;23.368;2023-08-06T11:22:10;93562.78;;;33.01;61.39
10946;BME280;5525;42.648;23.368;2023-08-06T11:24:37;93562.59;;;31.84;64.92
10946;BME280;5525;42.648;23.368;2023-08-06T11:27:11;93580.22;;;29.47;74.55
10946;BME280;5525;42.648;23.368;2023-08-06T11:29:39;93575.91;;;28.23;75.06
10946;BME280;5525;42.648;23.368;2023-08-06T11:32:06;93575.94;;;26.86;79.84
10946;BME280;5525;42.648;23.368;2023-08-06T11:34:33;93568.22;;;29.41;69.07
10946;BME280;5525;42.648;23.368;2023-08-06T11:37:00;93578.00;;;29.27;68.02
10946;BME280;5525;42.648;23.368;2023-08-06T11:39:29;93569.81;;;27.61;82.09
10946;BME280;5525;42.648;23.368;2023-08-06T11:41:56;93571.31;;;27.14;89.95
10946;BME280;5525;42.648;23.368;2023-08-06T11:44:25;93566.44;;;26.10;100.00
10946;BME280;5525;42.648;23.368;2023-08-06T11:46:54;93565.91;;;25.18;100.00
10946;BME280;5525;42.648;23.368;2023-08-06T11:49:37;93555.09;;;24.57;100.00
10946;BME280;5525;42.648;23.368;2023-08-06T11:52:09;93552.03;;;24.55;100.00
10946;BME280;5525;42.648;23.368;2023-08-06T11:54:36;93546.38;;;24.59;100.00
10946;BME280;5525;42.648;23.368;2023-08-06T11:57:05;93556.22;;;24.60;100.00
10946;BME280;5525;42.648;23.368;2023-08-06T11:59:32;93546.00;;;24.32;100.00
10946;BME280;5525;42.648;23.368;2023-08-06T12:02:01;93545.16;;;24.47;100.00
10946;BME280;5525;42.648;23.368;2023-08-06T12:04:30;93546.38;;;24.59;100.00
10946;BME280;5525;42.648;23.368;2023-08-06T12:07:04;93553.63;;;24.94;100.00
10946;BME280;5525;42.648;23.368;2023-08-06T12:09:33;93556.69;;;25.71;100.00
10946;BME280;5525;42.648;23.368;2023-08-06T12:12:01;93555.09;;;26.82;100.00
10946;BME280;5525;42.648;23.368;2023-08-06T12:14:28;93552.34;;;27.12;100.00
10946;BME280;5525;42.648;23.368;2023-08-06T12:16:55;93537.09;;;27.47;96.82
10946;BME280;5525;42.648;23.368;2023-08-06T12:19:23;93539.72;;;27.51;96.06
10946;BME280;5525;42.648;23.368;2023-08-06T12:21:49;93537.00;;;27.69;94.78
10946;BME280;5525;42.648;23.368;2023-08-06T12:24:16;93537.00;;;27.78;96.52
10946;BME280;5525;42.648;23.368;2023-08-06T12:26:43;93547.75;;;27.58;94.20
10946;BME280;5525;42.648;23.368;2023-08-06T12:29:09;93537.13;;;27.56;97.35
10946;BME280;5525;42.648;23.368;2023-08-06T12:31:36;93537.53;;;27.37;99.76
10946;BME280;5525;42.648;23.368;2023-08-06T12:34:03;93535.72;;;27.43;100.00
10946;BME280;5525;42.648;23.368;2023-08-06T12:36:31;93542.44;;;27.33;100.00
10946;BME280;5525;42.648;23.368;2023-08-06T12:38:57;93541.06;;;27.07;99.18
10946;BME280;5525;42.648;23.368;2023-08-06T12:41:24;93540.97;;;26.80;97.26
10946;BME280;5525;42.648;23.368;2023-08-06T12:43:51;93537.34;;;26.27;98.99
10946;BME280;5525;42.648;23.368;2023-08-06T12:46:17;93533.69;;;25.96;100.00
10946;BME280;5525;42.648;23.368;2023-08-06T12:48:44;93540.25;;;25.89;100.00
10946;BME280;5525;42.648;23.368;2023-08-06T12:51:10;93539.84;;;25.78;100.00
10946;BME280;5525;42.648;23.368;2023-08-06T12:53:38;93536.00;;;26.10;100.00
10946;BME280;5525;42.648;23.368;2023-08-06T12:56:05;93534.91;;;26.51;100.00